createdAt,value
2023-04-25T00:01:10.896Z,26.02
2023-04-25T00:03:40.299Z,26.02
2023-04-25T00:06:08.558Z,26.02
2023-04-25T00:08:36.352Z,26.02
2023-04-25T00:11:04.216Z,26.02
2023-04-25T00:13:31.984Z,26.02
2023-04-25T00:16:00.116Z,26.01
2023-04-25T00:18:31.130Z,25.51
2023-04-25T00:20:58.927Z,26.03
2023-04-25T00:23:26.777Z,26.05
2023-04-25T00:25:54.587Z,26.04
2023-04-25T00:28:22.386Z,26.04
2023-04-25T00:30:50.127Z,26.04
2023-04-25T00:33:17.941Z,26.04
2023-04-25T00:35:45.804Z,26.04
2023-04-25T00:38:13.781Z,26.04
2023-04-25T00:40:41.546Z,26.04
2023-04-25T00:43:09.317Z,26.05
2023-04-25T00:45:37.440Z,26.04
2023-04-25T00:48:05.317Z,26.05
2023-04-25T00:50:33.089Z,26.06
2023-04-25T00:53:00.857Z,26.05
2023-04-25T00:55:28.606Z,26.07
2023-04-25T00:57:56.398Z,26.07
2023-04-25T01:00:24.138Z,26.09
2023-04-25T01:02:52.436Z,26.10
2023-04-25T01:05:20.872Z,26.13
2023-04-25T01:07:49.291Z,26.15
2023-04-25T01:10:17.102Z,26.15
2023-04-25T01:12:44.853Z,26.16
2023-04-25T01:15:12.692Z,26.15
2023-04-25T01:17:41.425Z,26.16
2023-04-25T01:20:09.526Z,26.17
2023-04-25T01:22:37.290Z,26.15
2023-04-25T01:25:05.331Z,26.14
2023-04-25T01:27:33.176Z,26.15
2023-04-25T01:30:01.104Z,26.15
2023-04-25T01:32:29.102Z,26.15
2023-04-25T01:34:56.906Z,26.15
2023-04-25T01:37:24.647Z,26.15
2023-04-25T01:39:52.541Z,26.17
2023-04-25T01:42:20.335Z,26.18
2023-04-25T01:44:48.091Z,26.20
2023-04-25T01:47:15.959Z,26.22
2023-04-25T01:49:43.848Z,26.22
2023-04-25T01:52:11.693Z,26.23
2023-04-25T01:54:39.481Z,26.25
2023-04-25T01:57:07.241Z,26.26
2023-04-25T01:59:34.996Z,26.26
2023-04-25T02:02:05.702Z,26.24
2023-04-25T02:04:33.576Z,26.22
2023-04-25T02:07:01.613Z,26.21
2023-04-25T02:09:29.613Z,26.22
2023-04-25T02:11:57.496Z,26.23
2023-04-25T02:14:25.254Z,26.28
2023-04-25T02:16:53.418Z,26.34
2023-04-25T02:19:21.292Z,26.42
2023-04-25T02:21:49.151Z,26.50
2023-04-25T02:24:16.991Z,26.58
2023-04-25T02:26:45.172Z,26.67
2023-04-25T02:29:12.960Z,26.76
2023-04-25T02:31:40.821Z,26.86
2023-04-25T02:34:08.650Z,26.95
2023-04-25T02:36:37.464Z,27.05
2023-04-25T02:39:05.323Z,27.14
2023-04-25T02:41:33.091Z,27.24
2023-04-25T02:44:03.923Z,27.33
2023-04-25T02:46:38.974Z,27.44
2023-04-25T02:49:07.436Z,27.53
2023-04-25T02:51:35.273Z,27.61
2023-04-25T02:54:03.071Z,27.69
2023-04-25T02:56:30.965Z,27.78
2023-04-25T02:58:58.750Z,27.84
2023-04-25T03:01:26.646Z,27.88
2023-04-25T03:03:54.966Z,27.89
2023-04-25T03:06:23.088Z,27.87
2023-04-25T03:08:50.850Z,27.87
2023-04-25T03:11:18.631Z,27.83
2023-04-25T03:13:46.480Z,27.79
2023-04-25T03:16:14.291Z,27.76
2023-04-25T03:18:42.038Z,27.73
2023-04-25T03:21:09.879Z,27.71
2023-04-25T03:23:37.665Z,27.67
2023-04-25T03:26:05.989Z,27.66
2023-04-25T03:28:33.858Z,27.61
2023-04-25T03:31:01.634Z,27.59
2023-04-25T03:33:29.365Z,27.57
2023-04-25T03:35:57.273Z,27.54
2023-04-25T03:38:27.072Z,27.52
2023-04-25T03:40:55.121Z,27.50
2023-04-25T03:43:22.948Z,27.49
2023-04-25T03:45:50.710Z,27.48
2023-04-25T03:48:18.530Z,27.46
2023-04-25T03:50:46.292Z,27.44
2023-04-25T03:53:14.059Z,27.44
2023-04-25T03:55:43.507Z,27.44
2023-04-25T03:58:11.407Z,27.42
2023-04-25T04:00:39.161Z,27.41
2023-04-25T04:03:07.190Z,27.40
2023-04-25T04:05:35.431Z,27.39
2023-04-25T04:08:03.221Z,27.37
2023-04-25T04:10:31.040Z,27.36
2023-04-25T04:12:58.911Z,27.35
2023-04-25T04:15:26.723Z,27.35
2023-04-25T04:17:54.553Z,27.33
2023-04-25T04:20:22.433Z,27.33
2023-04-25T04:22:50.189Z,27.33
2023-04-25T04:25:17.912Z,27.33
2023-04-25T04:27:46.879Z,27.32
2023-04-25T04:30:14.636Z,27.30
2023-04-25T04:32:42.391Z,27.30
2023-04-25T04:35:11.055Z,27.27
2023-04-25T04:37:38.926Z,27.25
2023-04-25T04:40:07.184Z,27.24
2023-04-25T04:42:35.098Z,27.22
2023-04-25T04:45:03.526Z,27.20
2023-04-25T04:47:34.590Z,27.20
2023-04-25T04:50:02.382Z,27.20
2023-04-25T04:52:30.142Z,27.20
2023-04-25T04:54:58.266Z,27.20
2023-04-25T04:57:26.094Z,27.20
2023-04-25T04:59:53.854Z,27.20
2023-04-25T05:02:22.101Z,27.18
2023-04-25T05:04:50.122Z,27.19
2023-04-25T05:07:17.961Z,27.20
2023-04-25T05:09:45.713Z,27.21
2023-04-25T05:12:13.546Z,27.22
2023-04-25T05:14:41.305Z,27.23
2023-04-25T05:17:10.505Z,27.25
2023-04-25T05:19:38.300Z,27.25
2023-04-25T05:22:06.233Z,27.26
2023-04-25T05:24:33.994Z,27.25
2023-04-25T05:27:01.997Z,27.27
2023-04-25T05:29:29.798Z,27.28
2023-04-25T05:31:57.657Z,27.27
2023-04-25T05:34:25.519Z,27.27
2023-04-25T05:36:53.293Z,27.28
2023-04-25T05:39:21.085Z,27.27
2023-04-25T05:41:48.896Z,27.26
2023-04-25T05:44:17.900Z,27.26
2023-04-25T05:46:45.688Z,27.27
2023-04-25T05:49:13.506Z,27.26
2023-04-25T05:51:41.290Z,27.26
2023-04-25T05:54:09.032Z,27.25
2023-04-25T05:56:36.851Z,27.26
2023-04-25T05:59:10.635Z,27.26
2023-04-25T06:01:38.457Z,27.27
2023-04-25T06:04:06.676Z,27.26
2023-04-25T06:06:34.686Z,27.27
2023-04-25T06:09:02.626Z,27.27
2023-04-25T06:11:30.447Z,27.28
2023-04-25T06:13:58.306Z,27.30
2023-04-25T06:16:27.990Z,27.31
2023-04-25T06:18:55.998Z,27.31
2023-04-25T06:21:23.834Z,27.32
2023-04-25T06:23:51.946Z,27.32
2023-04-25T06:26:19.919Z,27.32
2023-04-25T06:28:47.776Z,27.31
2023-04-25T06:31:15.615Z,27.32
2023-04-25T06:33:43.483Z,27.32
2023-04-25T06:36:11.677Z,27.31
2023-04-25T06:38:39.464Z,27.31
2023-04-25T06:41:07.293Z,27.31
2023-04-25T06:43:35.509Z,27.30
2023-04-25T06:46:03.308Z,27.29
2023-04-25T06:48:31.055Z,27.29
2023-04-25T06:50:58.849Z,27.29
2023-04-25T06:53:26.713Z,27.27
2023-04-25T06:55:54.480Z,27.26
2023-04-25T06:58:22.244Z,27.25
2023-04-25T07:00:50.164Z,27.25
2023-04-25T07:03:18.183Z,27.24
2023-04-25T07:05:47.868Z,27.23
2023-04-25T07:08:15.709Z,27.23
2023-04-25T07:10:43.462Z,27.23
2023-04-25T07:13:14.263Z,27.22
2023-04-25T07:15:42.087Z,27.22
2023-04-25T07:18:09.863Z,27.21
2023-04-25T07:20:37.625Z,27.21
2023-04-25T07:23:05.418Z,27.20
2023-04-25T07:25:33.286Z,27.19
2023-04-25T07:28:01.124Z,27.18
2023-04-25T07:30:29.447Z,27.19
2023-04-25T07:32:57.692Z,27.19
2023-04-25T07:35:25.433Z,27.19
2023-04-25T07:37:53.653Z,27.20
2023-04-25T07:40:21.526Z,27.19
2023-04-25T07:42:49.718Z,27.19
2023-04-25T07:45:18.343Z,27.17
2023-04-25T07:47:46.908Z,27.17
2023-04-25T07:50:14.718Z,27.17
2023-04-25T07:52:42.561Z,27.17
2023-04-25T07:55:10.300Z,27.16
2023-04-25T07:57:38.154Z,27.16
2023-04-25T08:00:06.977Z,27.17
2023-04-25T08:02:34.936Z,27.18
2023-04-25T08:05:03.096Z,27.17
2023-04-25T08:07:31.070Z,27.18
2023-04-25T08:09:58.899Z,27.18
2023-04-25T08:12:26.940Z,27.18
2023-04-25T08:14:55.295Z,27.17
2023-04-25T08:17:23.084Z,27.17
2023-04-25T08:19:51.114Z,27.16
2023-04-25T08:22:18.943Z,27.17
2023-04-25T08:24:46.695Z,27.16
2023-04-25T08:27:14.543Z,27.15
2023-04-25T08:29:42.390Z,27.14
2023-04-25T08:32:10.188Z,27.12
2023-04-25T08:34:40.055Z,27.12
2023-04-25T08:37:07.926Z,27.12
2023-04-25T08:39:35.673Z,26.61
2023-04-25T08:44:24.611Z,27.11
2023-04-25T08:46:52.629Z,27.14
2023-04-25T08:49:21.041Z,27.17
2023-04-25T08:51:49.201Z,27.21
2023-04-25T08:56:38.224Z,27.30
2023-04-25T08:59:06.273Z,27.34
2023-04-25T09:01:34.118Z,27.40
2023-04-25T09:04:02.205Z,27.46
2023-04-25T09:06:30.262Z,27.49
2023-04-25T09:08:58.030Z,27.54
2023-04-25T09:11:26.268Z,27.59
2023-04-25T09:13:54.017Z,27.62
2023-04-25T09:16:23.683Z,27.66
2023-04-25T09:18:52.225Z,27.69
2023-04-25T09:21:20.057Z,27.72
2023-04-25T09:23:47.841Z,27.75
2023-04-25T09:26:15.660Z,27.78
2023-04-25T09:28:45.022Z,27.81
2023-04-25T09:31:13.537Z,27.83
2023-04-25T09:33:42.175Z,27.87
2023-04-25T09:36:10.029Z,27.89
2023-04-25T09:38:37.765Z,27.91
2023-04-25T09:41:05.499Z,27.94
2023-04-25T09:43:33.304Z,27.95
2023-04-25T09:46:02.258Z,27.97
2023-04-25T09:49:49.766Z,28.00
2023-04-25T09:52:17.758Z,28.01
2023-04-25T09:54:45.534Z,28.03
2023-04-25T09:57:13.715Z,28.05
2023-04-25T09:59:41.635Z,28.07
2023-04-25T10:02:09.425Z,28.08
2023-04-25T10:04:37.442Z,28.10
2023-04-25T10:07:05.376Z,28.11
2023-04-25T10:09:35.771Z,28.12
2023-04-25T10:12:03.667Z,28.13
2023-04-25T10:14:31.475Z,28.15
2023-04-25T10:16:59.273Z,28.16
2023-04-25T10:19:27.185Z,28.17
2023-04-25T10:21:54.943Z,28.17
2023-04-25T10:24:22.692Z,28.20
2023-04-25T10:26:50.472Z,28.21
2023-04-25T10:29:18.380Z,28.23
2023-04-25T10:31:46.394Z,28.27
2023-04-25T10:34:14.332Z,28.31
2023-04-25T10:36:42.177Z,28.34
2023-04-25T10:39:11.251Z,28.38
2023-04-25T10:41:39.078Z,28.40
2023-04-25T10:44:06.945Z,28.39
2023-04-25T10:46:36.044Z,28.36
2023-04-25T10:49:03.911Z,28.34
2023-04-25T10:51:43.442Z,28.31
2023-04-25T10:54:19.169Z,28.28
2023-04-25T10:56:46.920Z,28.23
2023-04-25T10:59:14.739Z,28.18
2023-04-25T11:01:42.781Z,28.16
2023-04-25T11:04:10.802Z,28.11
2023-04-25T11:06:39.219Z,28.05
2023-04-25T11:09:07.006Z,28.00
2023-04-25T11:11:34.843Z,27.96
2023-04-25T11:14:02.562Z,27.94
2023-04-25T11:16:30.328Z,27.91
2023-04-25T11:18:58.120Z,27.87
2023-04-25T11:21:25.934Z,27.83
